createdAt,value
2023-02-12T00:01:20.272Z,6.51
2023-02-12T00:03:48.188Z,6.55
2023-02-12T00:06:16.155Z,6.56
2023-02-12T00:08:44.111Z,6.58
2023-02-12T00:11:17.494Z,6.60
2023-02-12T00:13:45.005Z,6.61
2023-02-12T00:16:18.185Z,6.62
2023-02-12T00:18:46.149Z,6.65
2023-02-12T00:21:14.402Z,6.68
2023-02-12T00:23:41.857Z,6.69
2023-02-12T00:26:11.443Z,6.70
2023-02-12T00:28:39.456Z,6.72
2023-02-12T00:31:13.094Z,6.72
2023-02-12T00:33:40.984Z,6.73
2023-02-12T00:36:09.689Z,6.77
2023-02-12T00:38:36.800Z,6.77
2023-02-12T00:41:04.126Z,6.80
2023-02-12T00:43:30.983Z,6.81
2023-02-12T00:45:58.714Z,6.83
2023-02-12T00:48:26.406Z,6.85
2023-02-12T00:50:53.265Z,6.85
2023-02-12T00:53:20.392Z,6.88
2023-02-12T00:55:47.558Z,6.87
2023-02-12T00:58:18.861Z,6.90
2023-02-12T01:00:46.620Z,6.92
2023-02-12T01:03:13.760Z,6.93
2023-02-12T01:05:41.742Z,6.95
2023-02-12T01:08:08.989Z,6.96
2023-02-12T01:10:36.139Z,6.97
2023-02-12T01:13:03.370Z,6.97
2023-02-12T01:15:30.191Z,6.97
2023-02-12T01:17:57.302Z,6.97
2023-02-12T01:20:26.103Z,6.97
2023-02-12T01:22:53.599Z,6.97
2023-02-12T01:25:20.966Z,6.98
2023-02-12T01:27:48.472Z,6.98
2023-02-12T01:30:16.131Z,6.97
2023-02-12T01:32:44.410Z,6.97
2023-02-12T01:35:11.617Z,6.97
2023-02-12T01:37:39.180Z,6.96
2023-02-12T01:40:08.160Z,6.98
2023-02-12T01:42:35.770Z,6.97
2023-02-12T01:45:17.870Z,6.97
2023-02-12T01:47:46.118Z,6.97
2023-02-12T01:50:17.451Z,6.96
2023-02-12T01:52:50.888Z,6.97
2023-02-12T01:55:20.432Z,6.95
2023-02-12T01:57:48.688Z,6.96
2023-02-12T02:00:19.986Z,6.96
2023-02-12T02:02:53.395Z,6.97
2023-02-12T02:06:08.842Z,6.94
2023-02-12T02:08:37.453Z,6.94
2023-02-12T02:11:24.856Z,6.94
2023-02-12T02:17:04.547Z,6.91
2023-02-12T02:20:00.140Z,6.92
2023-02-12T02:22:28.025Z,6.91
2023-02-12T02:25:32.415Z,6.90
2023-02-12T02:28:21.082Z,6.89
2023-02-12T02:31:03.222Z,6.88
2023-02-12T02:33:46.098Z,6.88
2023-02-12T02:36:12.908Z,6.89
2023-02-12T02:38:58.750Z,6.88
2023-02-12T02:41:51.099Z,6.89
2023-02-12T02:44:28.669Z,6.90
2023-02-12T02:46:59.169Z,6.88
2023-02-12T02:49:34.328Z,6.88
2023-02-12T02:52:08.298Z,6.89
2023-02-12T02:54:44.729Z,6.89
2023-02-12T02:57:25.264Z,6.88
2023-02-12T03:00:04.139Z,6.87
2023-02-12T03:02:38.810Z,6.88
2023-02-12T03:05:16.349Z,6.89
2023-02-12T03:07:53.449Z,6.89
2023-02-12T03:10:26.962Z,6.90
2023-02-12T03:12:55.896Z,6.90
2023-02-12T03:18:54.036Z,6.90
2023-02-12T03:21:29.419Z,6.90
2023-02-12T03:24:29.395Z,6.88
2023-02-12T03:27:05.473Z,6.88
2023-02-12T03:29:33.409Z,6.90
2023-02-12T03:32:08.646Z,6.89
2023-02-12T03:34:51.027Z,6.88
2023-02-12T03:37:35.020Z,6.88
2023-02-12T03:40:19.756Z,6.86
2023-02-12T03:43:07.460Z,6.88
2023-02-12T03:45:35.047Z,6.87
2023-02-12T03:48:01.873Z,6.85
2023-02-12T03:50:55.752Z,6.82
2023-02-12T03:53:23.462Z,6.82
2023-02-12T03:55:57.262Z,6.80
2023-02-12T03:58:28.460Z,6.81
2023-02-12T04:00:55.691Z,6.81
2023-02-12T04:03:23.218Z,6.80
2023-02-12T04:05:50.547Z,6.79
2023-02-12T04:08:17.487Z,6.78
2023-02-12T04:11:07.051Z,6.77
2023-02-12T04:13:54.849Z,6.76
2023-02-12T04:16:54.604Z,6.75
2023-02-12T04:19:34.966Z,6.76
2023-02-12T04:22:11.508Z,6.73
2023-02-12T04:25:08.504Z,6.73
2023-02-12T04:27:38.900Z,6.70
2023-02-12T04:30:35.094Z,6.71
2023-02-12T04:33:05.581Z,6.69
2023-02-12T04:35:40.765Z,6.69
2023-02-12T04:38:16.999Z,6.66
2023-02-12T04:40:44.719Z,6.66
2023-02-12T04:43:12.222Z,6.66
2023-02-12T04:45:39.604Z,6.62
2023-02-12T04:48:07.014Z,6.61
2023-02-12T04:50:43.667Z,6.59
2023-02-12T04:53:11.464Z,6.59
2023-02-12T04:55:38.566Z,6.56
2023-02-12T04:58:07.192Z,6.58
2023-02-12T05:00:34.179Z,6.56
2023-02-12T05:03:01.394Z,6.59
2023-02-12T05:05:28.594Z,6.60
2023-02-12T05:07:55.504Z,6.58
2023-02-12T05:10:22.822Z,6.60
2023-02-12T05:12:52.769Z,6.60
2023-02-12T05:15:20.316Z,6.60
2023-02-12T05:17:47.642Z,6.62
2023-02-12T05:20:15.284Z,6.62
2023-02-12T05:22:42.524Z,6.62
2023-02-12T05:25:09.525Z,6.65
2023-02-12T05:27:37.169Z,6.65
2023-02-12T05:30:05.663Z,6.67
2023-02-12T05:32:33.084Z,6.65
2023-02-12T05:35:00.288Z,6.66
2023-02-12T05:37:27.718Z,6.69
2023-02-12T05:39:54.992Z,6.68
2023-02-12T05:42:22.588Z,6.73
2023-02-12T05:44:49.772Z,6.72
2023-02-12T05:47:17.192Z,6.73
2023-02-12T05:49:45.438Z,6.74
2023-02-12T05:52:13.005Z,6.75
2023-02-12T05:54:39.949Z,6.74
2023-02-12T05:57:07.747Z,6.76
2023-02-12T05:59:34.757Z,6.78
2023-02-12T06:02:02.146Z,6.82
2023-02-12T06:04:30.010Z,6.81
2023-02-12T06:06:57.544Z,6.81
2023-02-12T06:09:25.491Z,6.78
2023-02-12T06:11:52.797Z,6.77
2023-02-12T06:14:21.981Z,6.76
2023-02-12T06:16:51.238Z,6.76
2023-02-12T06:19:20.038Z,6.77
2023-02-12T06:21:48.008Z,6.77
2023-02-12T06:24:17.117Z,6.75
2023-02-12T06:26:45.233Z,6.74
2023-02-12T06:29:13.388Z,6.72
2023-02-12T06:31:40.849Z,6.74
2023-02-12T06:34:11.461Z,6.73
2023-02-12T06:36:40.363Z,6.74
2023-02-12T06:39:08.275Z,6.73
2023-02-12T06:41:35.585Z,6.72
2023-02-12T06:44:03.242Z,6.72
2023-02-12T06:46:30.519Z,6.72
2023-02-12T06:49:00.844Z,6.75
2023-02-12T06:51:29.709Z,6.77
2023-02-12T06:53:57.180Z,6.80
2023-02-12T06:56:25.721Z,6.82
2023-02-12T06:58:56.221Z,6.83
2023-02-12T07:01:26.432Z,6.82
2023-02-12T07:03:56.696Z,6.86
2023-02-12T07:06:24.758Z,6.87
2023-02-12T07:08:52.423Z,6.91
2023-02-12T07:11:24.107Z,6.92
2023-02-12T07:13:51.461Z,6.92
2023-02-12T07:16:23.945Z,6.93
2023-02-12T07:18:53.586Z,6.97
2023-02-12T07:21:20.743Z,6.99
2023-02-12T07:23:51.208Z,7.01
2023-02-12T07:26:20.846Z,7.05
2023-02-12T07:28:47.934Z,7.08
2023-02-12T07:34:38.970Z,7.16
2023-02-12T07:37:07.897Z,7.19
2023-02-12T07:39:35.131Z,7.19
2023-02-12T07:42:02.135Z,7.22
2023-02-12T07:44:29.771Z,7.24
2023-02-12T07:46:57.203Z,7.28
2023-02-12T07:49:24.291Z,7.30
2023-02-12T07:51:53.348Z,7.32
2023-02-12T07:54:23.049Z,7.36
2023-02-12T07:56:51.072Z,7.38
2023-02-12T07:59:20.128Z,7.41
2023-02-12T08:01:49.767Z,7.42
2023-02-12T08:04:20.217Z,7.44
2023-02-12T08:06:49.965Z,7.48
2023-02-12T08:09:25.349Z,7.52
2023-02-12T08:11:53.459Z,7.53
2023-02-12T08:14:21.744Z,7.58
2023-02-12T08:16:49.995Z,7.61
2023-02-12T08:19:21.201Z,7.64
2023-02-12T08:21:53.594Z,7.66
2023-02-12T08:24:22.326Z,7.69
2023-02-12T08:26:50.132Z,7.74
2023-02-12T08:29:24.492Z,7.76
2023-02-12T08:31:56.661Z,7.80
2023-02-12T08:34:26.776Z,7.83
2023-02-12T08:37:13.507Z,7.88
2023-02-12T08:39:40.724Z,7.93
2023-02-12T08:42:07.969Z,7.98
2023-02-12T08:44:35.503Z,8.04
2023-02-12T08:47:03.088Z,8.07
2023-02-12T08:49:30.818Z,8.10
2023-02-12T08:51:59.406Z,8.14
2023-02-12T08:54:29.333Z,8.19
2023-02-12T08:57:04.142Z,8.20
2023-02-12T08:59:32.085Z,8.23
2023-02-12T09:02:00.043Z,8.25
2023-02-12T09:04:28.684Z,8.27
2023-02-12T09:06:56.714Z,8.30
2023-02-12T09:09:23.963Z,8.31
2023-02-12T09:11:51.465Z,8.33
2023-02-12T09:14:24.802Z,8.36
2023-02-12T09:16:53.354Z,8.38
2023-02-12T09:19:21.490Z,8.41
2023-02-12T09:21:55.575Z,8.43
2023-02-12T09:24:25.262Z,8.44
2023-02-12T09:26:52.203Z,8.47
2023-02-12T09:29:24.023Z,8.51
2023-02-12T09:31:51.604Z,8.54
2023-02-12T09:34:18.937Z,8.56
2023-02-12T09:36:45.940Z,8.60
2023-02-12T09:39:13.536Z,8.63
2023-02-12T09:41:59.418Z,8.67
2023-02-12T09:44:26.924Z,8.72
2023-02-12T09:47:03.312Z,8.75
2023-02-12T09:49:33.909Z,8.78
2023-02-12T09:52:01.769Z,8.82
2023-02-12T09:54:39.218Z,8.86
2023-02-12T09:57:17.056Z,8.91
2023-02-12T10:00:09.534Z,8.95
2023-02-12T10:02:39.503Z,8.98
2023-02-12T10:05:17.514Z,9.01
2023-02-12T10:08:14.495Z,9.05
2023-02-12T10:10:59.954Z,9.08
2023-02-12T10:14:04.625Z,9.12
2023-02-12T10:16:50.751Z,9.15
2023-02-12T10:19:31.114Z,9.18
2023-02-12T10:22:19.390Z,9.22
2023-02-12T10:24:58.321Z,9.22
2023-02-12T10:27:40.041Z,9.26
2023-02-12T10:30:26.253Z,9.27
2023-02-12T10:32:59.035Z,9.30
2023-02-12T10:35:27.327Z,9.33
2023-02-12T10:38:18.190Z,9.36
2023-02-12T10:40:46.423Z,9.39
2023-02-12T10:43:14.875Z,9.42
2023-02-12T10:45:43.616Z,9.45
2023-02-12T10:48:22.134Z,9.49
2023-02-12T10:51:08.408Z,9.54
2023-02-12T10:53:37.738Z,9.59
2023-02-12T10:56:19.782Z,9.64
2023-02-12T10:58:50.672Z,9.67
2023-02-12T11:01:37.207Z,9.69
2023-02-12T11:04:25.233Z,9.73
2023-02-12T11:06:59.161Z,9.74
2023-02-12T11:09:37.002Z,9.75
2023-02-12T11:12:05.255Z,9.78
2023-02-12T11:14:33.647Z,9.79
2023-02-12T11:17:03.561Z,9.82
2023-02-12T11:19:34.484Z,9.85
2023-02-12T11:22:11.399Z,9.85
2023-02-12T11:24:39.429Z,9.86
2023-02-12T11:27:15.833Z,9.85
2023-02-12T11:29:49.151Z,9.85
2023-02-12T11:32:21.046Z,9.86
2023-02-12T11:35:05.271Z,9.88
2023-02-12T11:37:38.816Z,9.87
2023-02-12T11:40:07.953Z,9.88
2023-02-12T11:42:39.304Z,9.89
2023-02-12T11:45:07.265Z,9.88
2023-02-12T11:47:36.483Z,9.89
2023-02-12T11:50:09.718Z,9.88
2023-02-12T11:53:22.594Z,9.88
2023-02-12T12:03:58.772Z,9.93
2023-02-12T12:06:52.604Z,9.96
2023-02-12T12:09:36.382Z,9.99
2023-02-12T12:12:26.032Z,10.00
2023-02-12T12:15:20.929Z,10.03
2023-02-12T12:18:48.781Z,10.07
2023-02-12T12:21:31.909Z,10.10
2023-02-12T12:24:31.583Z,10.14
2023-02-12T12:27:15.025Z,10.19
2023-02-12T12:29:54.001Z,10.21
2023-02-12T12:32:25.444Z,10.23
2023-02-12T12:34:53.053Z,10.24
2023-02-12T12:37:43.205Z,10.24
2023-02-12T12:40:14.246Z,10.25
2023-02-12T12:42:44.684Z,10.29
2023-02-12T12:45:31.143Z,10.31
2023-02-12T12:48:26.592Z,10.35
2023-02-12T12:51:09.730Z,10.38
2023-02-12T12:53:44.381Z,10.40
2023-02-12T12:56:32.346Z,10.42
2023-02-12T12:59:11.587Z,10.42
2023-02-12T13:02:01.870Z,10.44
2023-02-12T13:04:49.757Z,10.47
2023-02-12T13:07:17.874Z,10.50
2023-02-12T13:10:05.352Z,10.52
2023-02-12T13:13:06.270Z,10.54
2023-02-12T13:15:58.053Z,10.57
2023-02-12T13:18:38.242Z,10.59
2023-02-12T13:21:16.723Z,10.59
2023-02-12T13:24:01.310Z,10.60
2023-02-12T13:26:50.027Z,10.61
2023-02-12T13:29:21.138Z,10.60
2023-02-12T13:31:58.031Z,10.61
2023-02-12T13:34:30.195Z,10.60
2023-02-12T13:37:02.739Z,10.60
2023-02-12T13:39:36.005Z,10.61
2023-02-12T13:42:16.775Z,10.62
2023-02-12T13:44:56.529Z,10.64
2023-02-12T13:47:41.099Z,10.65
2023-02-12T13:50:37.140Z,10.68
2023-02-12T13:53:30.246Z,10.69
2023-02-12T13:56:27.825Z,10.69
2023-02-12T13:59:01.775Z,10.69
2023-02-12T14:01:50.879Z,10.68
2023-02-12T14:04:22.451Z,10.68
2023-02-12T14:07:05.703Z,10.69
2023-02-12T14:09:36.855Z,10.65
2023-02-12T14:12:09.032Z,10.65
2023-02-12T14:14:49.344Z,10.63
2023-02-12T14:17:29.552Z,10.63
2023-02-12T14:20:25.761Z,10.60
2023-02-12T14:23:26.963Z,10.60
2023-02-12T14:26:31.803Z,10.58
2023-02-12T14:29:29.903Z,10.58
2023-02-12T14:32:09.362Z,10.57
2023-02-12T14:34:43.506Z,10.54
2023-02-12T14:37:55.111Z,10.51
2023-02-12T14:45:55.783Z,10.47
2023-02-12T14:52:22.122Z,10.38
2023-02-12T14:55:30.655Z,10.33
2023-02-12T14:58:07.231Z,10.31
2023-02-12T15:00:39.809Z,10.27
2023-02-12T15:03:15.041Z,10.24
2023-02-12T15:06:07.815Z,10.18
2023-02-12T15:09:00.765Z,10.15
2023-02-12T15:11:37.888Z,10.11
2023-02-12T15:14:23.574Z,10.09
2023-02-12T15:17:01.182Z,10.05
2023-02-12T15:19:40.879Z,10.01
2023-02-12T15:22:49.596Z,10.00
2023-02-12T15:25:26.512Z,9.96
2023-02-12T15:28:16.212Z,9.93
2023-02-12T15:30:48.395Z,9.94
2023-02-12T15:33:37.162Z,9.89
2023-02-12T15:36:13.482Z,9.87
2023-02-12T15:38:59.803Z,9.87
2023-02-12T15:44:50.322Z,9.80
2023-02-12T15:47:41.862Z,9.81
2023-02-12T15:50:48.887Z,9.80
2023-02-12T15:54:00.731Z,9.79
2023-02-12T15:56:45.877Z,9.78
2023-02-12T15:59:24.149Z,9.77
2023-02-12T16:02:03.716Z,9.75
2023-02-12T16:04:39.620Z,9.73
2023-02-12T16:07:17.527Z,9.70
2023-02-12T16:09:54.664Z,9.67
2023-02-12T16:12:44.258Z,9.64
2023-02-12T16:15:33.125Z,9.61
2023-02-12T16:18:06.345Z,9.58
2023-02-12T16:20:37.278Z,9.51
2023-02-12T16:23:16.892Z,9.47
2023-02-12T16:26:06.458Z,9.42
2023-02-12T16:28:38.709Z,9.39
2023-02-12T16:31:32.624Z,9.37
2023-02-12T16:34:03.728Z,9.34
2023-02-12T16:36:33.987Z,9.30
2023-02-12T16:39:06.132Z,9.28
2023-02-12T16:41:52.733Z,9.23
2023-02-12T16:44:25.918Z,9.18
2023-02-12T16:46:57.748Z,9.16
2023-02-12T16:49:27.417Z,9.14
2023-02-12T16:52:20.365Z,9.11
2023-02-12T16:54:52.209Z,9.09
2023-02-12T16:57:22.901Z,9.05
2023-02-12T16:59:50.997Z,9.02
2023-02-12T17:02:21.937Z,8.99
2023-02-12T17:04:55.109Z,8.97
2023-02-12T17:07:29.138Z,8.96
2023-02-12T17:09:59.616Z,8.93
2023-02-12T17:12:29.442Z,8.88
2023-02-12T17:14:59.556Z,8.86
2023-02-12T17:17:28.516Z,8.83
2023-02-12T17:19:57.676Z,8.81
2023-02-12T17:22:29.223Z,8.75
2023-02-12T17:25:01.845Z,8.68
2023-02-12T17:27:31.287Z,8.64
2023-02-12T17:30:01.092Z,8.57
2023-02-12T17:32:29.906Z,8.52
2023-02-12T17:34:58.157Z,8.52
2023-02-12T17:37:28.119Z,8.46
2023-02-12T17:39:58.194Z,8.48
2023-02-12T17:42:26.911Z,8.46
2023-02-12T17:45:01.865Z,8.44
2023-02-12T17:47:35.562Z,8.41
2023-02-12T17:50:05.857Z,8.36
2023-02-12T17:52:53.813Z,8.29
2023-02-12T17:55:22.650Z,8.29
2023-02-12T17:57:55.716Z,8.30
2023-02-12T18:00:26.112Z,8.26
2023-02-12T18:02:55.743Z,8.22
2023-02-12T18:05:25.035Z,8.18
2023-02-12T18:07:56.788Z,8.17
2023-02-12T18:10:26.888Z,8.10
2023-02-12T18:12:56.460Z,8.12
2023-02-12T18:15:26.180Z,8.09
2023-02-12T18:17:57.886Z,8.08
2023-02-12T18:20:30.175Z,8.06
2023-02-12T18:22:59.401Z,8.05
2023-02-12T18:25:28.560Z,8.00
2023-02-12T18:27:58.145Z,8.00
2023-02-12T18:30:28.988Z,8.00
2023-02-12T18:32:59.782Z,7.95
2023-02-12T18:35:28.660Z,7.97
2023-02-12T18:37:58.080Z,8.00
2023-02-12T18:40:27.521Z,8.02
2023-02-12T18:42:55.884Z,8.00
2023-02-12T18:45:25.077Z,8.03
2023-02-12T18:47:55.531Z,8.01
2023-02-12T18:50:25.710Z,7.97
2023-02-12T18:52:56.388Z,7.98
2023-02-12T18:55:25.880Z,7.96
2023-02-12T18:57:56.398Z,7.97
2023-02-12T19:00:25.796Z,7.95
2023-02-12T19:02:56.217Z,7.93
2023-02-12T19:05:27.533Z,7.96
2023-02-12T19:07:57.347Z,7.94
2023-02-12T19:10:26.430Z,7.94
2023-02-12T19:12:57.056Z,7.94
2023-02-12T19:15:31.342Z,7.94
2023-02-12T19:18:02.478Z,7.95
2023-02-12T19:20:33.227Z,7.93
2023-02-12T19:23:04.232Z,7.93
2023-02-12T19:25:41.845Z,7.94
2023-02-12T19:28:13.618Z,7.92
2023-02-12T19:30:49.656Z,7.90
2023-02-12T19:33:21.390Z,7.90
2023-02-12T19:36:03.360Z,7.90
2023-02-12T19:38:33.877Z,7.89
2023-02-12T19:41:08.689Z,7.86
2023-02-12T19:43:38.658Z,7.84
2023-02-12T19:46:15.083Z,7.83
2023-02-12T19:51:31.299Z,7.80
2023-02-12T19:54:08.142Z,7.79
2023-02-12T19:56:38.493Z,7.76
2023-02-12T19:59:08.989Z,7.75
2023-02-12T20:01:38.244Z,7.71
2023-02-12T20:04:08.921Z,7.69
2023-02-12T20:06:39.933Z,7.69
2023-02-12T20:09:09.518Z,7.68
2023-02-12T20:11:40.239Z,7.65
2023-02-12T20:14:12.757Z,7.66
2023-02-12T20:16:47.543Z,7.67
2023-02-12T20:19:20.099Z,7.67
2023-02-12T20:21:57.659Z,7.64
2023-02-12T20:24:31.192Z,7.61
2023-02-12T20:27:02.880Z,7.57
2023-02-12T20:29:31.841Z,7.57
2023-02-12T20:32:01.125Z,7.57
2023-02-12T20:34:32.948Z,7.53
2023-02-12T20:37:07.835Z,7.50
2023-02-12T20:39:36.375Z,7.48
2023-02-12T20:42:05.067Z,7.48
2023-02-12T20:44:34.710Z,7.46
2023-02-12T20:47:03.565Z,7.41
2023-02-12T20:49:32.658Z,7.38
2023-02-12T20:52:00.742Z,7.35
2023-02-12T20:54:29.543Z,7.29
2023-02-12T20:56:58.987Z,7.21
2023-02-12T21:00:04.576Z,7.21
2023-02-12T21:02:35.884Z,7.16
2023-02-12T21:05:05.184Z,7.11
2023-02-12T21:07:33.745Z,6.99
2023-02-12T21:10:02.102Z,6.98
2023-02-12T21:12:30.710Z,6.96
2023-02-12T21:14:59.930Z,6.95
2023-02-12T21:17:28.197Z,6.96
2023-02-12T21:19:57.382Z,6.94
2023-02-12T21:22:25.768Z,6.95
2023-02-12T21:24:54.412Z,6.88
2023-02-12T21:30:24.777Z,6.83
2023-02-12T21:32:54.450Z,6.80
2023-02-12T21:35:23.424Z,6.73
2023-02-12T21:37:52.305Z,6.73
2023-02-12T21:40:22.969Z,6.69
2023-02-12T21:42:50.640Z,6.67
2023-02-12T21:45:18.515Z,6.67
2023-02-12T21:47:46.213Z,6.65
2023-02-12T21:50:14.619Z,6.59
2023-02-12T21:52:42.712Z,6.63
2023-02-12T21:55:11.188Z,6.60
2023-02-12T21:57:38.936Z,6.53
2023-02-12T22:00:07.956Z,6.49
2023-02-12T22:02:35.908Z,6.47
2023-02-12T22:05:02.948Z,6.46
2023-02-12T22:07:30.601Z,6.43
2023-02-12T22:09:57.600Z,6.40
2023-02-12T22:12:25.065Z,6.39
2023-02-12T22:14:52.586Z,6.38
2023-02-12T22:17:19.945Z,6.37
2023-02-12T22:19:47.241Z,6.32
2023-02-12T22:22:14.299Z,6.29
2023-02-12T22:24:41.605Z,6.27
2023-02-12T22:27:09.434Z,6.26
2023-02-12T22:29:36.810Z,6.25
2023-02-12T22:32:04.274Z,6.25
2023-02-12T22:34:31.657Z,6.23
2023-02-12T22:36:58.955Z,6.22
2023-02-12T22:39:30.400Z,6.21
2023-02-12T22:41:57.657Z,6.14
2023-02-12T22:44:24.992Z,6.10
2023-02-12T22:46:52.388Z,6.11
2023-02-12T22:49:19.662Z,6.08
2023-02-12T22:51:46.954Z,6.02
2023-02-12T22:54:16.186Z,5.96
2023-02-12T22:56:43.938Z,5.96
2023-02-12T22:59:12.834Z,5.92
2023-02-12T23:01:40.424Z,5.86
2023-02-12T23:04:11.257Z,5.88
2023-02-12T23:06:40.593Z,5.83
2023-02-12T23:09:08.111Z,5.78
2023-02-12T23:11:35.242Z,5.77
2023-02-12T23:14:02.443Z,5.74
2023-02-12T23:16:29.941Z,5.70
2023-02-12T23:18:59.453Z,5.72
2023-02-12T23:21:29.343Z,5.70
2023-02-12T23:23:59.227Z,5.67
2023-02-12T23:26:27.707Z,5.66
2023-02-12T23:28:56.135Z,5.66
2023-02-12T23:31:23.446Z,5.65
2023-02-12T23:33:50.517Z,5.62
2023-02-12T23:36:17.815Z,5.60
2023-02-12T23:38:44.994Z,5.58
2023-02-12T23:41:12.587Z,5.52
2023-02-12T23:43:39.530Z,5.51
2023-02-12T23:46:06.852Z,5.48
2023-02-12T23:48:34.376Z,5.43
2023-02-12T23:51:01.627Z,5.41
2023-02-12T23:53:28.960Z,5.39
2023-02-12T23:55:56.149Z,5.32
2023-02-12T23:58:23.416Z,5.31
